createdAt,value
2022-11-04T15:51:46.309Z,99202.98
2022-11-04T15:54:22.601Z,99201.41
2022-11-04T15:56:54.476Z,99205.41
2022-11-04T15:59:25.330Z,99207.08
2022-11-04T16:01:53.848Z,99204.23
2022-11-04T16:04:24.930Z,99199.74
2022-11-04T16:07:22.261Z,99194.73
2022-11-04T16:09:52.368Z,99203.77
2022-11-04T16:12:27.946Z,99202.95
2022-11-04T16:14:56.713Z,99206.28
2022-11-04T16:17:26.036Z,99207.14
2022-11-04T16:19:55.861Z,99212.38
2022-11-04T16:22:31.091Z,99214.77
2022-11-04T16:25:02.239Z,99216.08
2022-11-04T16:27:37.991Z,99218.29
2022-11-04T16:30:20.141Z,99212.59
2022-11-04T16:32:53.921Z,99207.91
2022-11-04T16:35:26.464Z,99211.70
2022-11-04T16:37:59.899Z,99212.27
2022-11-04T16:40:30.209Z,99211.45
2022-11-04T16:43:00.498Z,99213.80
2022-11-04T16:45:34.971Z,99217.86
2022-11-04T16:48:05.998Z,99208.43
2022-11-04T16:50:36.266Z,99206.90
2022-11-04T16:53:06.658Z,99206.10
2022-11-04T16:55:40.815Z,99208.70
2022-11-04T16:58:18.389Z,99211.98
2022-11-04T17:00:48.762Z,99211.91
2022-11-04T17:03:22.247Z,99216.34
2022-11-04T17:05:54.193Z,99209.45
2022-11-04T17:08:24.531Z,99211.31
2022-11-04T17:10:55.455Z,99205.96
2022-11-04T17:13:25.717Z,99200.02
2022-11-04T17:15:55.945Z,99205.67
2022-11-04T17:18:26.341Z,99211.64
2022-11-04T17:20:58.306Z,99210.30
2022-11-04T18:50:54.044Z,99194.70
2022-11-04T18:53:25.924Z,99198.55
2022-11-04T18:55:54.565Z,99202.73
2022-11-04T18:58:24.579Z,99203.43
2022-11-04T19:00:52.066Z,99208.40
2022-11-04T19:03:20.598Z,99208.03
2022-11-04T19:05:48.050Z,99202.79
2022-11-04T19:08:15.522Z,99200.40
2022-11-04T19:11:00.169Z,99202.73
2022-11-04T19:13:28.778Z,99197.94
2022-11-04T19:22:40.333Z,99201.77
2022-11-04T19:25:12.113Z,99199.73
2022-11-04T19:27:42.369Z,99204.17
2022-11-04T19:30:14.691Z,99205.91
2022-11-04T19:32:46.873Z,99201.51
2022-11-04T19:35:18.415Z,99211.38
2022-11-04T19:37:48.687Z,99217.17
2022-11-04T19:40:20.542Z,99218.73
2022-11-04T19:43:13.893Z,99217.66
2022-11-04T19:45:46.749Z,99214.73
2022-11-04T19:48:18.654Z,99215.11
2022-11-04T19:50:50.538Z,99216.57
2022-11-04T19:53:21.289Z,99210.88
2022-11-04T19:55:54.487Z,99207.79
2022-11-04T19:59:00.481Z,99216.84
2022-11-04T20:01:36.734Z,99218.95
2022-11-04T20:04:05.734Z,99223.88
2022-11-04T20:06:33.709Z,99227.20
2022-11-04T20:09:05.763Z,99222.16
2022-11-04T20:11:34.420Z,99225.20
2022-11-04T20:14:07.818Z,99230.13
2022-11-04T20:16:38.781Z,99229.98
2022-11-04T20:19:06.653Z,99230.04
2022-11-04T20:21:36.162Z,99232.35
2022-11-04T20:24:06.933Z,99232.06
2022-11-04T20:26:36.046Z,99229.65
2022-11-04T20:29:16.352Z,99231.31
2022-11-04T20:31:44.884Z,99233.13
2022-11-04T20:34:14.018Z,99235.60
2022-11-04T20:36:44.799Z,99239.61
2022-11-04T20:39:15.240Z,99239.46
2022-11-04T20:41:45.056Z,99238.91
2022-11-04T20:44:14.253Z,99234.88
2022-11-04T20:46:44.212Z,99235.89
2022-11-04T20:50:30.690Z,99244.93
2022-11-04T20:53:01.170Z,99247.45
2022-11-04T21:01:12.097Z,99241.26
2022-11-04T21:03:39.680Z,99243.41
2022-11-04T21:06:08.514Z,99240.43
2022-11-04T21:08:37.158Z,99237.13
2022-11-04T21:11:06.160Z,99241.52
2022-11-04T21:13:37.599Z,99247.67
2022-11-04T21:16:06.489Z,99247.72
2022-11-04T21:18:37.577Z,99243.86
2022-11-04T21:21:06.712Z,99244.73
2022-11-04T21:23:34.663Z,99246.98
2022-11-04T21:26:07.700Z,99246.41
2022-11-04T21:28:35.447Z,99249.70
2022-11-04T21:31:05.178Z,99253.86
2022-11-04T21:33:32.758Z,99254.95
2022-11-04T21:36:03.311Z,99256.14
2022-11-04T21:38:31.009Z,99262.92
2022-11-04T21:41:02.639Z,99263.75
2022-11-04T21:43:30.234Z,99263.73
2022-11-04T21:46:05.527Z,99259.25
2022-11-04T21:48:34.803Z,99255.64
2022-11-04T21:51:03.270Z,99254.34
2022-11-04T21:53:33.450Z,99256.51
2022-11-04T21:56:05.985Z,99258.48
2022-11-04T21:58:33.979Z,99256.02
2022-11-04T22:01:01.907Z,99259.31
2022-11-04T22:03:29.429Z,99258.14
2022-11-04T22:05:59.567Z,99252.64
2022-11-04T22:08:27.350Z,99252.27
2022-11-04T22:10:56.145Z,99249.62
2022-11-04T22:13:24.345Z,99256.38
2022-11-04T22:16:02.599Z,99255.89
2022-11-04T22:18:32.283Z,99261.85
2022-11-04T22:21:05.796Z,99262.25
2022-11-04T22:23:35.697Z,99263.48
2022-11-04T22:26:07.875Z,99267.52
2022-11-04T22:28:36.840Z,99268.29
2022-11-04T22:31:09.314Z,99265.02
2022-11-04T22:33:38.966Z,99261.05
2022-11-04T22:36:10.817Z,99261.68
2022-11-04T22:38:39.202Z,99268.09
2022-11-04T22:41:10.041Z,99267.77
2022-11-04T22:43:37.901Z,99273.95
2022-11-04T22:46:07.822Z,99277.48
2022-11-04T22:48:36.509Z,99282.44
2022-11-04T22:51:04.384Z,99286.53
2022-11-04T22:53:32.139Z,99293.21
2022-11-04T22:56:00.505Z,99298.14
2022-11-04T22:58:28.287Z,99303.94
2022-11-04T23:00:57.667Z,99311.33
2022-11-04T23:03:28.013Z,99315.02
2022-11-04T23:05:58.938Z,99314.90
2022-11-04T23:08:27.954Z,99309.34
2022-11-04T23:11:27.324Z,99311.51
2022-11-04T23:14:20.050Z,99313.65
2022-11-04T23:17:08.483Z,99314.06
2022-11-04T23:19:38.460Z,99314.64
2022-11-04T23:22:24.530Z,99321.54
2022-11-04T23:25:09.125Z,99319.54
2022-11-04T23:27:57.668Z,99331.63
2022-11-04T23:30:27.573Z,99328.57
2022-11-04T23:32:56.709Z,99326.55
2022-11-04T23:35:44.661Z,99327.81
2022-11-04T23:38:12.166Z,99329.80
2022-11-04T23:40:39.871Z,99334.94
2022-11-04T23:43:13.831Z,99332.79
2022-11-04T23:46:14.464Z,99331.66
2022-11-04T23:49:00.301Z,99334.21
2022-11-04T23:52:00.995Z,99338.16
2022-11-04T23:54:47.564Z,99344.50
2022-11-04T23:57:34.667Z,99357.64
